Resolution - western half: Past 24 Hour Conditions

 

Coral Harbour Airport

12:00 PM EST 25 October 2014
This table is a summary of hourly weather conditions for the past 24 hours.
Date / Time
(EST)
Wind(knots) Conditions Visibility(km) Pressure(kPa) Air tempC) Relative humidity(%) Dew pointC) Wind Chill
25 October 2014
12:00 E 26 gust 36 Cloudy 24 101.2 -6 77 -10 -17
11:00 E 24 gust 34 Cloudy 24 101.3 -6 77 -10 -16
10:00 E 26 gust 31 Cloudy 24 101.3 -7 80 -9 -17
9:00 E 25 gust 34 Cloudy 24 101.3 -7 81 -10 -17
8:00 E 23 gust 29 Cloudy 24 101.3 -7 81 -9 -17
7:00 E 25 gust 32 Cloudy 24 101.4 -6 81 -9 -16
6:00 E 24 gust 31 Cloudy 24 101.4 -6 79 -9 -16
5:00 E 28 gust 35 Cloudy 24 101.4 -6 79 -9 -16
4:00 E 27 gust 34 Cloudy 24 101.4 -6 78 -9 -16
3:00 E 24 gust 30 Cloudy 24 101.5 -6 80 -9 -16
2:00 E 23 gust 30 Cloudy 24 101.5 -6 79 -9 -15
1:00 E 21 gust 28 Cloudy 24 101.6 -6 79 -9 -16
0:00 E 20 gust 26 Cloudy 24 101.7 -6 80 -9 -16
24 October 2014
23:00 E 20 gust 29 Cloudy 24 101.7 -7 79 -10 -16
22:00 E 23 Cloudy 24 101.8 -7 78 -10 -17
21:00 E 20 gust 26 Cloudy 24 101.9 -7 78 -10 -17
20:00 E 22 gust 31 Cloudy 24 101.9 -7 76 -11 -17
19:00 E 15 gust 22 Cloudy 24 102.0 -7 76 -11 -16
18:00 E 13 Cloudy 24 102.1 -8 76 -12 -16
17:00 ENE 13 Mostly Cloudy 24 102.1 -8 75 -12 -16
16:00 E 13 Cloudy 24 102.2 -7 75 -11 -15
15:00 E 13 Cloudy 24 102.2 -7 76 -11 -15
14:00 E 15 Cloudy 24 102.3 -7 75 -11 -16
13:00 E 12 Cloudy 24 102.4 -8 76 -12 -16
12:00 ENE 13 Mostly Cloudy 24 102.4 -9 75 -13 -17
 
Map of Arctic - Eastern Arctic marine weather areas Baker Lake Airport Chesterfield Inlet Airport Coral Harbour Airport Gjoa Haven Airport Kugaaruk Airport Rankin Inlet Airport Shepherd Bay Airport Whale Cove Airport Arctic Bay Brevoort Island Qikiqtarjuaq Airport Cape Dorset Airport Cape Dyer Cape Hooper Clyde Airport Grise Fiord Airport Hall Beach Airport Igloolik Airport Iqaluit Airport Longstaff Bluff Pangnirtung Airport Pond Inlet Airport Repulse Bay Airport Resolute Airport Resolution Island Rowley Island Airport Taloyoak Airport Wager Bay Akulivik Airport Ivujivik Airport Puvirnituq Airport Kangiqsujuaq Airport Kangirsuk Airport Quaqtaq Airport Tasiujaq Airport Cape Kakkiviak Cape Kiglapait Nain Airport Saglek Cape Mercy Kimmirut Airport Aupaluk Airport Salluit Airport Kangiqsualujjuaq Airport Fort Ross
Legend: buoyBuoy land stationLand Station